createdAt,value
2022-12-25T00:00:55.876Z,11.50
2022-12-25T00:03:40.475Z,11.70
2022-12-25T00:08:49.190Z,11.40
2022-12-25T00:11:16.821Z,11.40
2022-12-25T00:13:43.633Z,11.30
2022-12-25T00:16:11.838Z,11.30
2022-12-25T00:18:38.644Z,11.30
2022-12-25T00:21:06.057Z,11.30
2022-12-25T00:23:33.424Z,11.30
2022-12-25T00:26:01.150Z,11.30
2022-12-25T00:28:27.892Z,11.20
2022-12-25T00:30:54.773Z,11.20
2022-12-25T00:33:22.462Z,11.20
2022-12-25T00:35:59.039Z,11.40
2022-12-25T00:38:26.097Z,11.20
2022-12-25T00:40:55.004Z,11.60
2022-12-25T00:43:22.080Z,11.20
2022-12-25T00:45:56.664Z,10.40
2022-12-25T00:48:23.597Z,10.50
2022-12-25T00:50:53.431Z,11.10
2022-12-25T00:53:20.166Z,11.10
2022-12-25T00:55:50.937Z,11.10
2022-12-25T00:58:17.975Z,11.10
2022-12-25T01:00:45.072Z,11.10
2022-12-25T01:03:12.163Z,11.50
2022-12-25T01:05:39.079Z,11.10
2022-12-25T01:08:06.767Z,11.10
2022-12-25T01:10:33.537Z,11.30
2022-12-25T01:13:00.293Z,11.20
2022-12-25T01:15:27.344Z,11.60
2022-12-25T01:17:54.216Z,12.00
2022-12-25T01:20:21.127Z,11.40
2022-12-25T01:22:48.044Z,11.20
2022-12-25T01:25:15.721Z,11.50
2022-12-25T01:27:47.491Z,11.20
2022-12-25T01:30:15.444Z,10.20
2022-12-25T01:35:26.121Z,11.80
2022-12-25T01:40:28.952Z,11.00
2022-12-25T01:42:58.934Z,11.00
2022-12-25T01:48:32.293Z,10.90
2022-12-25T01:53:49.900Z,10.80
2022-12-25T01:56:18.267Z,11.10
2022-12-25T01:58:47.324Z,10.80
2022-12-25T02:01:17.279Z,11.60
2022-12-25T02:03:45.909Z,11.10
2022-12-25T02:06:12.678Z,11.70
2022-12-25T02:08:39.752Z,10.90
2022-12-25T02:11:08.220Z,10.90
2022-12-25T02:13:34.940Z,12.30
2022-12-25T02:16:06.056Z,11.60
2022-12-25T02:18:51.505Z,11.70
2022-12-25T02:21:27.666Z,11.40
2022-12-25T02:23:54.627Z,10.70
2022-12-25T02:26:24.639Z,11.80
2022-12-25T02:29:10.387Z,10.40
2022-12-25T02:31:42.544Z,10.70
2022-12-25T02:34:09.283Z,10.70
2022-12-25T02:36:46.625Z,10.60
2022-12-25T02:39:38.219Z,10.60
2022-12-25T02:42:05.612Z,10.30
2022-12-25T02:45:08.359Z,9.50
2022-12-25T02:47:54.086Z,10.70
2022-12-25T02:50:42.504Z,10.70
2022-12-25T02:53:28.216Z,11.50
2022-12-25T02:56:13.912Z,10.80
2022-12-25T02:58:59.433Z,10.80
2022-12-25T03:01:46.308Z,11.50
2022-12-25T03:04:33.093Z,12.00
2022-12-25T03:07:20.149Z,11.00
2022-12-25T03:10:07.732Z,11.20
2022-12-25T03:12:37.749Z,11.10
2022-12-25T03:15:24.571Z,10.20
2022-12-25T03:17:51.500Z,11.00
2022-12-25T03:20:37.070Z,10.90
2022-12-25T03:23:22.573Z,11.00
2022-12-25T03:26:08.056Z,11.90
2022-12-25T03:28:34.897Z,11.00
2022-12-25T03:31:14.089Z,12.30
2022-12-25T03:34:10.490Z,9.90
2022-12-25T03:36:38.143Z,10.80
2022-12-25T03:39:36.809Z,10.10
2022-12-25T03:45:30.626Z,10.20
2022-12-25T03:48:14.323Z,10.80
2022-12-25T03:51:04.939Z,11.40
2022-12-25T03:53:55.220Z,11.80
2022-12-25T03:56:42.339Z,10.80
2022-12-25T03:59:27.971Z,10.70
2022-12-25T04:02:14.615Z,10.70
2022-12-25T04:05:04.927Z,10.70
2022-12-25T04:07:51.285Z,10.70
2022-12-25T04:10:38.269Z,10.80
2022-12-25T04:13:25.148Z,10.60
2022-12-25T04:16:17.861Z,10.80
2022-12-25T04:19:04.123Z,10.80
2022-12-25T04:21:49.994Z,10.80
2022-12-25T04:24:36.295Z,10.90
2022-12-25T04:27:23.119Z,10.80
2022-12-25T04:38:49.215Z,11.00
2022-12-25T04:41:17.137Z,11.00
2022-12-25T04:43:45.315Z,12.40
2022-12-25T04:46:13.162Z,10.60
2022-12-25T04:48:51.703Z,10.90
2022-12-25T04:51:20.410Z,10.90
2022-12-25T04:56:29.060Z,11.00
2022-12-25T04:58:56.395Z,11.00
2022-12-25T05:01:23.470Z,11.50
2022-12-25T05:03:54.612Z,11.10
2022-12-25T05:06:22.452Z,11.10
2022-12-25T05:08:51.613Z,11.10
2022-12-25T05:11:20.332Z,11.00
2022-12-25T05:13:47.179Z,11.30
2022-12-25T05:16:16.991Z,11.10
2022-12-25T05:21:25.313Z,11.60
2022-12-25T05:23:52.564Z,11.10
2022-12-25T05:26:24.727Z,9.80
2022-12-25T05:28:52.527Z,11.10
2022-12-25T05:31:23.287Z,11.00
2022-12-25T05:33:54.130Z,11.70
2022-12-25T05:36:21.731Z,11.30
2022-12-25T05:38:48.909Z,9.70
2022-12-25T05:41:15.726Z,11.10
2022-12-25T05:43:43.415Z,11.40
2022-12-25T05:49:01.950Z,11.10
2022-12-25T05:51:32.019Z,11.10
2022-12-25T05:53:59.532Z,11.10
2022-12-25T05:56:26.385Z,11.10
2022-12-25T05:58:54.031Z,11.10
2022-12-25T06:01:22.317Z,11.10
2022-12-25T06:03:50.142Z,11.10
2022-12-25T06:06:24.813Z,11.10
2022-12-25T06:08:53.787Z,11.10
2022-12-25T06:11:22.897Z,11.10
2022-12-25T06:13:51.712Z,10.90
2022-12-25T06:16:19.509Z,11.10
2022-12-25T06:18:59.602Z,11.10
2022-12-25T06:21:27.575Z,11.10
2022-12-25T06:23:54.931Z,11.10
2022-12-25T06:26:22.216Z,11.00
2022-12-25T06:28:49.134Z,11.00
2022-12-25T06:31:19.416Z,12.10
2022-12-25T06:33:48.915Z,11.00
2022-12-25T06:36:16.637Z,11.00
2022-12-25T06:38:43.672Z,11.10
2022-12-25T06:41:11.237Z,11.10
2022-12-25T06:43:38.333Z,11.10
2022-12-25T06:46:06.547Z,11.00
2022-12-25T06:48:33.736Z,11.00
2022-12-25T06:51:01.638Z,11.10
2022-12-25T06:53:32.272Z,11.00
2022-12-25T06:56:04.734Z,11.10
2022-12-25T06:58:32.356Z,11.00
2022-12-25T07:01:00.248Z,11.00
2022-12-25T07:03:28.676Z,11.00
2022-12-25T07:05:55.623Z,11.00
2022-12-25T07:08:23.821Z,11.00
2022-12-25T07:10:50.591Z,11.10
2022-12-25T07:13:18.082Z,11.00
2022-12-25T07:15:45.289Z,11.00
2022-12-25T07:18:12.326Z,11.00
2022-12-25T07:20:39.374Z,11.00
2022-12-25T07:23:06.184Z,11.00
2022-12-25T07:25:37.250Z,11.00
2022-12-25T07:28:04.714Z,11.10
2022-12-25T07:30:31.527Z,11.00
2022-12-25T07:32:58.304Z,11.20
2022-12-25T07:35:25.913Z,11.10
2022-12-25T07:37:52.671Z,11.10
2022-12-25T07:40:22.562Z,11.20
2022-12-25T07:42:50.462Z,11.20
2022-12-25T07:45:17.429Z,11.20
2022-12-25T07:47:45.654Z,11.20
2022-12-25T07:50:12.490Z,11.20
2022-12-25T07:52:43.388Z,11.30
2022-12-25T07:55:11.020Z,11.20
2022-12-25T07:57:41.058Z,11.20
2022-12-25T08:00:08.855Z,11.00
2022-12-25T08:02:35.977Z,11.40
2022-12-25T08:05:03.511Z,11.30
2022-12-25T08:07:30.263Z,10.50
2022-12-25T08:09:57.119Z,11.30
2022-12-25T08:12:24.511Z,11.30
2022-12-25T08:14:55.433Z,11.30
2022-12-25T08:17:22.775Z,11.30
2022-12-25T08:19:52.158Z,11.30
2022-12-25T08:22:19.187Z,11.30
2022-12-25T08:24:46.284Z,11.10
2022-12-25T08:27:14.701Z,11.30
2022-12-25T08:29:43.566Z,11.30
2022-12-25T08:32:11.182Z,11.30
2022-12-25T08:34:39.253Z,11.30
2022-12-25T08:37:06.338Z,11.50
2022-12-25T08:39:37.245Z,11.30
2022-12-25T08:42:04.482Z,11.20
2022-12-25T08:47:19.595Z,11.20
2022-12-25T08:49:47.170Z,11.20
2022-12-25T08:52:14.425Z,11.10
2022-12-25T08:54:41.473Z,11.10
2022-12-25T08:57:08.444Z,11.10
2022-12-25T08:59:35.680Z,11.10
2022-12-25T09:02:03.147Z,11.10
2022-12-25T09:04:31.032Z,11.90
2022-12-25T09:06:59.037Z,11.20
2022-12-25T09:09:28.559Z,11.70
2022-12-25T09:11:55.555Z,11.20
2022-12-25T09:14:22.552Z,10.40
2022-12-25T09:16:52.949Z,11.20
2022-12-25T09:19:20.214Z,11.30
2022-12-25T09:21:47.083Z,11.20
2022-12-25T09:24:14.333Z,11.30
2022-12-25T09:26:41.494Z,11.50
2022-12-25T09:29:08.857Z,11.20
2022-12-25T09:31:37.548Z,10.30
2022-12-25T09:34:04.311Z,12.70
2022-12-25T09:36:31.520Z,11.30
2022-12-25T09:38:58.417Z,11.30
2022-12-25T09:44:14.062Z,11.30
2022-12-25T09:49:48.953Z,11.50
2022-12-25T09:55:00.717Z,11.60
2022-12-25T10:48:07.175Z,11.70
2022-12-25T10:50:41.564Z,11.80
2022-12-25T10:58:45.062Z,11.90
2022-12-25T11:03:52.923Z,9.30
2022-12-25T11:06:36.876Z,12.30
2022-12-25T11:11:48.041Z,10.70
2022-12-25T11:17:09.284Z,11.80
2022-12-25T11:19:36.411Z,11.80
2022-12-25T11:22:05.245Z,11.80
2022-12-25T11:24:32.972Z,12.30
2022-12-25T11:27:00.784Z,11.80
2022-12-25T11:29:31.008Z,11.90
2022-12-25T11:31:58.857Z,11.90
2022-12-25T11:34:35.865Z,11.90
2022-12-25T11:37:06.643Z,11.90
2022-12-25T11:53:56.522Z,12.50
2022-12-25T11:56:28.288Z,12.80
2022-12-25T11:58:56.373Z,12.50
2022-12-25T12:01:42.983Z,12.70
2022-12-25T12:04:42.997Z,12.70
2022-12-25T12:07:14.376Z,12.80
2022-12-25T12:10:00.487Z,12.80
2022-12-25T12:12:33.671Z,12.70
2022-12-25T12:15:21.637Z,12.80
2022-12-25T12:17:50.618Z,12.80
2022-12-25T12:20:37.667Z,12.80
2022-12-25T12:23:04.851Z,12.90
2022-12-25T12:25:32.372Z,12.90
2022-12-25T12:28:05.401Z,12.90
2022-12-25T12:30:35.393Z,12.90
2022-12-25T12:33:04.658Z,12.90
2022-12-25T12:35:32.919Z,13.20
2022-12-25T12:38:00.744Z,12.90
2022-12-25T12:40:51.176Z,12.80
2022-12-25T12:43:30.309Z,12.80
2022-12-25T12:45:58.564Z,12.80
2022-12-25T12:48:26.183Z,12.70
2022-12-25T12:51:04.539Z,12.70
2022-12-25T12:53:32.109Z,12.70
2022-12-25T12:56:18.562Z,12.70
2022-12-25T12:58:55.457Z,12.70
2022-12-25T13:01:36.041Z,12.70
2022-12-25T13:04:21.925Z,12.60
2022-12-25T13:06:48.782Z,12.60
2022-12-25T13:09:21.606Z,12.50
2022-12-25T13:12:09.395Z,12.50
2022-12-25T13:14:38.181Z,12.50
2022-12-25T13:17:06.843Z,12.60
2022-12-25T13:19:33.677Z,12.40
2022-12-25T13:22:01.301Z,12.40
2022-12-25T13:24:28.934Z,12.40
2022-12-25T13:27:04.096Z,12.40
2022-12-25T13:29:40.957Z,12.40
2022-12-25T13:32:08.528Z,12.30
2022-12-25T13:34:39.418Z,12.60
2022-12-25T13:37:32.607Z,12.40
2022-12-25T13:40:00.571Z,12.80
2022-12-25T13:42:29.275Z,12.50
2022-12-25T13:45:21.378Z,12.40
2022-12-25T13:47:55.521Z,12.90
2022-12-25T13:50:23.089Z,13.10
2022-12-25T13:52:50.290Z,12.40
2022-12-25T13:55:23.419Z,12.30
2022-12-25T13:57:52.443Z,12.20
2022-12-25T14:00:24.392Z,12.20
2022-12-25T14:02:53.280Z,13.20
2022-12-25T14:05:24.559Z,13.30
2022-12-25T14:07:55.430Z,12.30
2022-12-25T14:10:23.648Z,12.30
2022-12-25T14:12:51.483Z,12.20
2022-12-25T14:15:19.372Z,11.80
2022-12-25T14:17:50.161Z,12.10
2022-12-25T14:20:30.768Z,12.90
2022-12-25T14:22:58.056Z,11.10
2022-12-25T14:25:29.475Z,12.80
2022-12-25T14:27:56.445Z,12.10
2022-12-25T14:30:24.636Z,12.10
2022-12-25T14:32:51.668Z,12.10
2022-12-25T14:35:23.375Z,12.00
2022-12-25T14:37:56.919Z,12.00
2022-12-25T14:40:26.792Z,12.90
2022-12-25T14:42:56.994Z,12.00
2022-12-25T14:45:27.995Z,12.00
2022-12-25T14:47:56.599Z,12.20
2022-12-25T14:50:26.407Z,12.40
2022-12-25T14:52:53.292Z,12.00
2022-12-25T14:55:24.316Z,12.40
2022-12-25T14:57:52.294Z,12.00
2022-12-25T15:00:22.911Z,12.40
2022-12-25T15:02:50.893Z,11.90
2022-12-25T15:05:28.552Z,11.90
2022-12-25T15:08:04.613Z,11.90
2022-12-25T15:13:18.334Z,11.80
2022-12-25T15:15:52.383Z,12.40
2022-12-25T15:18:19.819Z,11.80
2022-12-25T15:20:46.657Z,12.20
2022-12-25T15:23:21.130Z,11.70
2022-12-25T15:25:48.301Z,12.70
2022-12-25T15:28:15.292Z,11.60
2022-12-25T15:30:42.121Z,11.60
2022-12-25T15:33:15.673Z,11.50
2022-12-25T15:35:44.310Z,11.50
2022-12-25T15:38:11.862Z,10.70
2022-12-25T15:40:38.903Z,11.60
2022-12-25T15:43:11.359Z,11.40
2022-12-25T15:45:47.669Z,11.60
2022-12-25T15:48:14.640Z,11.40
2022-12-25T15:50:41.451Z,11.20
2022-12-25T15:53:08.341Z,11.30
2022-12-25T15:55:35.284Z,11.10
2022-12-25T15:58:02.154Z,11.20
2022-12-25T16:00:29.077Z,11.00
2022-12-25T16:02:56.036Z,11.00
2022-12-25T16:05:23.093Z,11.00
2022-12-25T16:07:49.886Z,11.00
2022-12-25T16:10:17.555Z,11.00
2022-12-25T16:12:44.384Z,10.80
2022-12-25T16:15:12.063Z,10.80
2022-12-25T16:17:39.062Z,10.80
2022-12-25T16:20:06.315Z,10.70
2022-12-25T16:22:39.979Z,10.80
2022-12-25T16:25:08.075Z,10.70
2022-12-25T16:27:34.988Z,11.40
2022-12-25T16:30:02.073Z,10.20
2022-12-25T16:32:29.380Z,11.10
2022-12-25T16:34:56.157Z,10.00
2022-12-25T16:37:22.995Z,10.90
2022-12-25T16:39:49.965Z,10.40
2022-12-25T16:42:16.896Z,11.60
2022-12-25T16:44:43.761Z,10.70
2022-12-25T16:47:10.655Z,10.90
2022-12-25T16:49:38.040Z,11.30
2022-12-25T16:52:05.010Z,10.90
2022-12-25T16:54:31.922Z,10.60
2022-12-25T16:56:58.868Z,9.70
2022-12-25T16:59:25.819Z,11.50
2022-12-25T17:01:52.647Z,10.60
2022-12-25T17:04:19.496Z,11.80
2022-12-25T17:06:46.416Z,10.60
2022-12-25T17:09:13.236Z,10.70
2022-12-25T17:11:40.028Z,10.70
2022-12-25T17:14:07.119Z,10.50
2022-12-25T17:16:34.737Z,11.00
2022-12-25T17:19:02.751Z,9.50
2022-12-25T17:21:29.682Z,11.00
2022-12-25T17:24:01.697Z,11.00
2022-12-25T17:26:30.615Z,10.70
2022-12-25T17:28:57.468Z,10.70
2022-12-25T17:31:24.271Z,10.50
2022-12-25T17:33:51.448Z,10.70
2022-12-25T17:36:19.044Z,10.70
2022-12-25T17:38:48.553Z,10.80
2022-12-25T17:41:16.026Z,10.80
2022-12-25T17:43:44.331Z,11.40
2022-12-25T17:46:12.050Z,10.80
2022-12-25T17:48:38.880Z,10.80
2022-12-25T17:51:06.378Z,11.20
2022-12-25T17:53:39.860Z,10.70
2022-12-25T17:56:07.078Z,10.70
2022-12-25T17:58:36.182Z,11.20
2022-12-25T18:01:06.986Z,11.60
2022-12-25T18:03:33.928Z,10.90
2022-12-25T18:06:01.097Z,10.70
2022-12-25T18:08:31.175Z,11.00
2022-12-25T18:11:07.998Z,10.40
2022-12-25T18:13:35.212Z,10.40
2022-12-25T18:16:07.971Z,11.20
2022-12-25T18:18:35.117Z,10.30
2022-12-25T18:21:02.399Z,10.30
2022-12-25T18:23:39.715Z,10.80
2022-12-25T18:26:07.475Z,11.00
2022-12-25T18:28:34.451Z,8.50
2022-12-25T18:31:01.366Z,10.60
2022-12-25T18:33:28.359Z,10.60
2022-12-25T18:36:01.102Z,10.20
2022-12-25T18:38:27.929Z,10.20
2022-12-25T18:40:54.838Z,10.40
2022-12-25T18:43:21.613Z,11.40
2022-12-25T18:46:08.447Z,11.80
2022-12-25T18:48:35.420Z,10.10
2022-12-25T18:51:03.001Z,10.10
2022-12-25T18:53:30.088Z,10.20
2022-12-25T18:55:57.272Z,10.40
2022-12-25T18:58:25.373Z,10.10
2022-12-25T19:00:52.510Z,10.40
2022-12-25T19:03:25.468Z,10.20
2022-12-25T19:05:52.451Z,10.30
2022-12-25T19:08:22.206Z,9.90
2022-12-25T19:10:48.982Z,10.30
2022-12-25T19:13:19.686Z,10.60
2022-12-25T19:15:47.208Z,8.90
2022-12-25T19:18:17.455Z,9.90
2022-12-25T19:20:44.318Z,10.50
2022-12-25T19:23:11.477Z,10.00
2022-12-25T19:25:38.933Z,11.40
2022-12-25T19:28:08.832Z,10.60
2022-12-25T19:30:37.517Z,10.20
2022-12-25T19:33:11.090Z,10.00
2022-12-25T19:35:42.897Z,10.00
2022-12-25T19:38:09.917Z,10.00
2022-12-25T19:40:37.989Z,10.70
2022-12-25T19:43:05.316Z,10.00
2022-12-25T19:45:32.726Z,10.90
2022-12-25T19:47:59.787Z,9.90
2022-12-25T19:50:28.933Z,9.80
2022-12-25T19:52:59.242Z,10.20
2022-12-25T19:55:26.127Z,9.80
2022-12-25T19:57:56.562Z,10.40
2022-12-25T20:00:27.594Z,9.40
2022-12-25T20:02:59.214Z,10.10
2022-12-25T20:05:28.158Z,8.80
2022-12-25T20:08:00.239Z,10.70
2022-12-25T20:10:30.099Z,9.30
2022-12-25T20:12:57.313Z,9.80
2022-12-25T20:15:25.167Z,10.50
2022-12-25T20:17:54.437Z,9.60
2022-12-25T20:20:21.432Z,10.50
2022-12-25T20:22:48.427Z,8.90
2022-12-25T20:25:17.763Z,9.90
2022-12-25T20:27:55.123Z,11.10
2022-12-25T20:30:22.209Z,10.20
2022-12-25T20:32:50.690Z,9.50
2022-12-25T20:35:18.030Z,10.20
2022-12-25T20:37:44.833Z,9.10
2022-12-25T20:40:19.315Z,9.70
2022-12-25T20:42:48.322Z,10.40
2022-12-25T20:45:15.105Z,10.40
2022-12-25T20:47:42.056Z,9.70
2022-12-25T20:50:11.819Z,9.70
2022-12-25T20:52:49.999Z,9.80
2022-12-25T20:55:17.618Z,10.60
2022-12-25T20:57:54.248Z,9.80
2022-12-25T21:00:21.493Z,10.40
2022-12-25T21:02:48.628Z,10.10
2022-12-25T21:05:15.703Z,9.90
2022-12-25T21:07:42.675Z,9.80
2022-12-25T21:12:52.725Z,9.90
2022-12-25T21:15:19.786Z,10.60
2022-12-25T21:17:49.041Z,11.40
2022-12-25T21:20:16.126Z,10.30
2022-12-25T21:22:44.595Z,10.50
2022-12-25T21:25:11.617Z,10.40
2022-12-25T21:27:38.474Z,10.10
2022-12-25T21:30:15.125Z,10.10
2022-12-25T21:33:01.371Z,10.00
2022-12-25T21:35:28.229Z,10.10
2022-12-25T21:37:55.132Z,10.40
2022-12-25T21:40:22.013Z,10.20
2022-12-25T21:42:48.865Z,10.70
2022-12-25T21:45:15.758Z,10.60
2022-12-25T21:48:02.596Z,8.80
2022-12-25T21:50:48.510Z,8.60
2022-12-25T21:53:18.778Z,10.30
2022-12-25T21:55:55.644Z,10.10
2022-12-25T21:58:22.605Z,10.20
2022-12-25T22:00:49.540Z,10.60
2022-12-25T22:03:16.451Z,10.10
2022-12-25T22:06:01.976Z,10.80
2022-12-25T22:15:07.138Z,10.60
2022-12-25T22:17:53.295Z,10.10
2022-12-25T22:20:38.302Z,10.20
2022-12-25T22:23:05.408Z,10.40
2022-12-25T22:25:32.192Z,10.10
2022-12-25T22:28:00.254Z,10.10
2022-12-25T22:30:30.407Z,10.10
2022-12-25T22:32:57.198Z,10.10
2022-12-25T22:35:24.121Z,10.50
2022-12-25T22:37:51.057Z,10.00
2022-12-25T22:40:18.330Z,10.10
2022-12-25T22:42:48.087Z,10.10
2022-12-25T22:45:15.110Z,10.10
2022-12-25T22:47:42.083Z,10.50
2022-12-25T22:50:09.127Z,10.10
2022-12-25T22:52:36.377Z,10.30
2022-12-25T22:55:03.731Z,10.00
2022-12-25T22:57:30.583Z,10.10
2022-12-25T22:59:57.943Z,10.10
2022-12-25T23:02:25.087Z,10.10
2022-12-25T23:04:54.958Z,10.30
2022-12-25T23:07:24.306Z,10.10
2022-12-25T23:09:51.332Z,10.10
2022-12-25T23:12:36.837Z,10.10
2022-12-25T23:15:03.759Z,10.00
2022-12-25T23:17:49.218Z,10.00
2022-12-25T23:20:34.556Z,10.50
2022-12-25T23:23:20.102Z,10.10
2022-12-25T23:26:05.649Z,10.10
2022-12-25T23:28:50.961Z,10.00
2022-12-25T23:31:18.121Z,10.00
2022-12-25T23:33:44.834Z,10.10
2022-12-25T23:36:11.590Z,10.10
2022-12-25T23:38:38.366Z,10.10
2022-12-25T23:41:05.096Z,10.10
2022-12-25T23:43:34.327Z,10.10
2022-12-25T23:46:01.061Z,10.10
2022-12-25T23:48:27.874Z,10.00
2022-12-25T23:50:54.705Z,10.10
2022-12-25T23:53:21.500Z,10.00
2022-12-25T23:55:55.301Z,10.20
2022-12-25T23:58:22.698Z,10.00
